createdAt,value
2022-09-20T00:01:41.541Z,1.98
2022-09-20T00:04:10.403Z,2.15
2022-09-20T00:06:39.011Z,1.67
2022-09-20T00:09:07.622Z,1.73
2022-09-20T00:11:36.948Z,2.13
2022-09-20T00:14:08.801Z,1.90
2022-09-20T00:16:40.884Z,2.35
2022-09-20T00:19:19.064Z,2.15
2022-09-20T00:21:47.854Z,2.53
2022-09-20T00:24:16.215Z,1.98
2022-09-20T00:26:44.707Z,1.58
2022-09-20T00:29:13.858Z,1.60
2022-09-20T00:31:43.833Z,1.67
2022-09-20T00:34:30.934Z,1.60
2022-09-20T00:36:59.410Z,1.95
2022-09-20T00:39:27.847Z,2.08
2022-09-20T00:41:56.240Z,1.90
2022-09-20T00:44:45.550Z,2.08
2022-09-20T00:47:24.758Z,1.83
2022-09-20T00:49:58.861Z,1.52
2022-09-20T00:52:29.072Z,2.40
2022-09-20T00:54:58.989Z,1.48
2022-09-20T00:57:27.799Z,1.53
2022-09-20T00:59:56.952Z,2.20
2022-09-20T01:02:30.136Z,1.35
2022-09-20T01:04:59.877Z,1.38
2022-09-20T01:07:28.570Z,1.40
2022-09-20T01:09:57.439Z,1.38
2022-09-20T01:12:34.367Z,0.80
2022-09-20T01:15:08.103Z,1.45
2022-09-20T01:17:39.273Z,2.08
2022-09-20T01:20:28.801Z,2.63
2022-09-20T01:23:28.486Z,1.52
2022-09-20T01:26:10.479Z,1.38
2022-09-20T01:28:42.799Z,1.85
2022-09-20T01:31:25.715Z,1.25
2022-09-20T01:34:11.182Z,1.42
2022-09-20T01:36:46.446Z,1.33
2022-09-20T01:39:18.225Z,1.45
2022-09-20T01:41:57.825Z,1.20
2022-09-20T01:44:54.245Z,0.98
2022-09-20T01:47:41.700Z,1.13
2022-09-20T01:50:31.347Z,1.08
2022-09-20T01:53:38.329Z,1.08
2022-09-20T01:56:48.330Z,1.52
2022-09-20T01:59:36.423Z,1.52
2022-09-20T02:02:09.742Z,1.20
2022-09-20T02:04:56.859Z,1.80
2022-09-20T02:07:49.479Z,1.02
2022-09-20T02:10:32.667Z,1.23
2022-09-20T02:13:12.968Z,2.17
2022-09-20T02:16:06.587Z,2.45
2022-09-20T02:18:57.165Z,1.35
2022-09-20T02:21:42.724Z,1.25
2022-09-20T02:24:30.061Z,1.45
2022-09-20T02:27:09.035Z,1.20
2022-09-20T02:30:00.793Z,1.20
2022-09-20T02:32:44.460Z,1.13
2022-09-20T02:35:18.610Z,1.00
2022-09-20T02:38:02.433Z,1.45
2022-09-20T02:43:25.866Z,1.20
2022-09-20T02:46:32.800Z,1.42
2022-09-20T02:49:22.593Z,1.25
2022-09-20T02:51:59.134Z,0.98
2022-09-20T02:54:57.648Z,1.38
2022-09-20T02:57:50.590Z,1.20
2022-09-20T03:00:23.891Z,1.17
2022-09-20T03:03:30.699Z,1.60
2022-09-20T03:06:21.439Z,1.10
2022-09-20T03:09:22.359Z,1.23
2022-09-20T03:14:55.835Z,1.45
2022-09-20T03:17:43.222Z,1.58
2022-09-20T03:20:34.487Z,1.92
2022-09-20T03:23:43.975Z,1.98
2022-09-20T03:26:28.121Z,2.33
2022-09-20T03:29:21.658Z,1.65
2022-09-20T03:32:01.618Z,1.88
2022-09-20T03:34:46.662Z,2.10
2022-09-20T03:37:40.903Z,1.98
2022-09-20T03:40:25.012Z,2.20
2022-09-20T03:42:54.631Z,2.00
2022-09-20T03:45:38.173Z,1.50
2022-09-20T03:48:27.016Z,2.35
2022-09-20T03:51:06.909Z,2.30
2022-09-20T03:54:01.917Z,3.73
2022-09-20T03:56:59.004Z,2.15
2022-09-20T03:59:54.283Z,2.05
2022-09-20T04:02:50.588Z,1.83
2022-09-20T04:05:32.767Z,1.98
2022-09-20T04:08:20.064Z,2.50
2022-09-20T04:11:15.765Z,2.10
2022-09-20T04:14:26.365Z,1.98
2022-09-20T04:17:06.020Z,2.45
2022-09-20T04:19:53.222Z,2.35
2022-09-20T04:22:25.130Z,3.20
2022-09-20T04:24:56.592Z,2.30
2022-09-20T04:27:41.922Z,1.65
2022-09-20T04:30:22.865Z,2.03
2022-09-20T04:33:25.010Z,2.13
2022-09-20T04:36:27.827Z,3.67
2022-09-20T04:39:23.653Z,2.25
2022-09-20T04:42:04.016Z,2.17
2022-09-20T04:44:43.451Z,2.20
2022-09-20T04:47:38.895Z,2.47
2022-09-20T04:50:43.996Z,2.13
2022-09-20T04:54:03.518Z,1.80
2022-09-20T04:56:58.002Z,2.20
2022-09-20T04:59:49.645Z,2.13
2022-09-20T05:02:48.381Z,2.10
2022-09-20T05:05:35.852Z,2.53
2022-09-20T05:08:48.810Z,2.10
2022-09-20T05:11:35.777Z,3.92
2022-09-20T05:14:37.021Z,2.63
2022-09-20T05:17:33.019Z,1.90
2022-09-20T05:20:16.718Z,1.67
2022-09-20T05:23:16.321Z,2.15
2022-09-20T05:26:08.617Z,1.70
2022-09-20T05:28:46.079Z,2.55
2022-09-20T05:31:41.911Z,2.42
2022-09-20T05:34:32.074Z,1.88
2022-09-20T05:37:16.410Z,2.47
2022-09-20T05:39:47.623Z,2.30
2022-09-20T05:42:20.898Z,3.15
2022-09-20T05:45:36.759Z,2.22
2022-09-20T05:48:24.410Z,2.42
2022-09-20T05:51:03.668Z,2.47
2022-09-20T05:53:47.867Z,2.55
2022-09-20T05:56:22.309Z,2.53
2022-09-20T05:59:02.062Z,2.15
2022-09-20T06:01:38.668Z,1.98
2022-09-20T06:04:20.102Z,2.47
2022-09-20T06:07:09.183Z,2.53
2022-09-20T06:09:52.016Z,3.58
2022-09-20T06:12:23.205Z,2.50
2022-09-20T06:15:04.886Z,1.73
2022-09-20T06:17:39.512Z,4.88
2022-09-20T06:20:18.997Z,2.60
2022-09-20T06:22:54.137Z,2.80
2022-09-20T06:25:31.269Z,2.13
2022-09-20T06:28:08.442Z,2.85
2022-09-20T06:30:46.343Z,2.33
2022-09-20T06:33:25.482Z,2.53
2022-09-20T06:36:21.945Z,2.20
2022-09-20T06:39:23.314Z,2.35
2022-09-20T06:41:52.333Z,2.42
2022-09-20T06:44:20.760Z,2.75
2022-09-20T06:46:49.134Z,2.75
2022-09-20T06:49:18.363Z,3.05
2022-09-20T06:51:47.342Z,2.65
2022-09-20T06:54:19.312Z,1.95
2022-09-20T06:56:50.519Z,2.17
2022-09-20T06:59:19.666Z,1.83
2022-09-20T07:01:48.050Z,1.83
2022-09-20T07:04:16.490Z,1.63
2022-09-20T07:06:45.079Z,1.58
2022-09-20T07:09:13.425Z,1.50
2022-09-20T07:11:43.111Z,1.85
2022-09-20T07:14:11.668Z,1.70
2022-09-20T07:16:40.434Z,1.60
2022-09-20T07:19:08.877Z,1.50
2022-09-20T07:21:37.225Z,1.35
2022-09-20T07:24:05.668Z,1.33
2022-09-20T07:26:34.848Z,1.40
2022-09-20T07:29:03.222Z,1.20
2022-09-20T07:31:31.656Z,1.05
2022-09-20T07:34:00.302Z,1.88
2022-09-20T07:36:29.394Z,1.08
2022-09-20T07:38:57.795Z,1.48
2022-09-20T07:41:30.568Z,1.30
2022-09-20T07:44:18.871Z,1.63
2022-09-20T07:47:07.594Z,1.45
2022-09-20T07:49:36.509Z,1.13
2022-09-20T07:52:04.989Z,1.10
2022-09-20T07:54:33.623Z,1.23
2022-09-20T07:57:02.094Z,1.63
2022-09-20T07:59:30.701Z,1.40
2022-09-20T08:02:00.681Z,0.88
2022-09-20T08:04:29.338Z,0.70
2022-09-20T08:06:58.651Z,1.00
2022-09-20T08:09:27.593Z,0.80
2022-09-20T08:11:57.037Z,0.70
2022-09-20T08:14:25.682Z,0.90
2022-09-20T08:16:54.784Z,0.70
2022-09-20T08:19:25.792Z,0.80
2022-09-20T08:21:54.340Z,1.10
2022-09-20T08:24:22.750Z,1.15
2022-09-20T08:26:51.104Z,0.80
2022-09-20T08:29:19.758Z,1.30
2022-09-20T08:31:48.370Z,1.23
2022-09-20T08:34:17.995Z,0.88
2022-09-20T08:36:47.216Z,1.23
2022-09-20T08:42:22.885Z,0.73
2022-09-20T08:45:01.115Z,1.10
2022-09-20T08:47:33.239Z,1.40
2022-09-20T08:50:17.585Z,0.68
2022-09-20T08:52:49.743Z,0.90
2022-09-20T08:55:25.567Z,1.17
2022-09-20T08:57:58.756Z,0.95
2022-09-20T09:00:34.050Z,0.95
2022-09-20T09:03:11.265Z,0.90
2022-09-20T09:05:50.683Z,0.95
2022-09-20T09:08:22.233Z,0.98
2022-09-20T09:11:16.689Z,1.02
2022-09-20T09:14:30.488Z,1.10
2022-09-20T09:17:01.032Z,1.10
2022-09-20T09:19:46.158Z,0.73
2022-09-20T09:22:36.039Z,1.10
2022-09-20T09:25:24.735Z,1.33
2022-09-20T09:27:57.676Z,0.90
2022-09-20T09:30:32.560Z,0.85
2022-09-20T09:33:25.599Z,1.00
2022-09-20T09:36:15.596Z,0.98
2022-09-20T09:38:46.389Z,1.10
2022-09-20T09:43:59.427Z,1.10
2022-09-20T09:46:33.160Z,1.00
2022-09-20T09:49:34.228Z,0.90
2022-09-20T09:52:15.984Z,0.93
2022-09-20T09:54:55.234Z,0.82
2022-09-20T09:57:37.663Z,0.95
2022-09-20T10:00:20.508Z,0.90
2022-09-20T10:03:11.120Z,1.10
2022-09-20T10:06:14.311Z,1.10
2022-09-20T10:09:31.819Z,1.50
2022-09-20T10:12:23.535Z,1.92
2022-09-20T10:14:54.861Z,0.88
2022-09-20T10:17:56.215Z,1.60
2022-09-20T10:20:28.169Z,0.95
2022-09-20T10:26:53.547Z,1.42
2022-09-20T10:29:30.997Z,1.10
2022-09-20T10:32:04.194Z,1.25
2022-09-20T10:34:57.571Z,1.27
2022-09-20T10:37:55.282Z,0.80
2022-09-20T10:40:58.763Z,1.75
2022-09-20T10:44:05.604Z,0.95
2022-09-20T10:47:04.004Z,1.30
2022-09-20T10:49:54.184Z,0.98
2022-09-20T10:52:44.857Z,1.20
2022-09-20T10:55:25.583Z,1.00
2022-09-20T11:01:00.987Z,1.55
2022-09-20T11:04:02.094Z,1.05
2022-09-20T11:06:33.298Z,1.00
2022-09-20T11:09:03.043Z,1.27
2022-09-20T11:11:40.431Z,1.10
2022-09-20T11:14:30.129Z,1.33
2022-09-20T11:17:19.416Z,1.13
2022-09-20T11:19:56.581Z,0.93
2022-09-20T11:23:12.244Z,0.90
2022-09-20T11:26:06.641Z,1.20
2022-09-20T11:28:49.039Z,0.90
2022-09-20T11:31:35.639Z,0.90
2022-09-20T11:34:48.252Z,1.30
2022-09-20T11:37:18.792Z,1.42
2022-09-20T11:39:50.469Z,1.30
2022-09-20T11:42:28.600Z,1.30
2022-09-20T11:44:57.037Z,1.20
2022-09-20T11:47:53.399Z,1.52
2022-09-20T11:50:51.460Z,1.23
2022-09-20T11:53:31.205Z,1.27
2022-09-20T11:56:37.421Z,1.23
2022-09-20T11:59:22.937Z,0.98
2022-09-20T12:01:56.600Z,0.85
2022-09-20T12:04:33.817Z,1.45
2022-09-20T12:07:10.578Z,1.10
2022-09-20T12:09:45.000Z,1.33
2022-09-20T12:12:37.588Z,0.90
2022-09-20T12:15:26.564Z,0.95
2022-09-20T12:18:08.230Z,0.90
2022-09-20T12:20:38.892Z,1.20
2022-09-20T12:23:40.890Z,1.80
2022-09-20T12:26:22.570Z,0.82
2022-09-20T12:28:51.269Z,0.85
2022-09-20T12:31:22.698Z,0.70
2022-09-20T12:34:12.306Z,0.70
2022-09-20T12:36:46.643Z,0.88
2022-09-20T12:39:29.923Z,0.77
2022-09-20T12:42:00.588Z,0.60
2022-09-20T12:44:50.092Z,0.82
2022-09-20T12:47:29.105Z,1.10
2022-09-20T12:50:19.034Z,0.88
2022-09-20T12:53:01.154Z,1.23
2022-09-20T12:56:00.492Z,0.98
2022-09-20T12:58:39.950Z,0.75
2022-09-20T13:01:11.981Z,1.33
2022-09-20T13:03:50.635Z,1.02
2022-09-20T13:06:19.264Z,0.90
2022-09-20T13:09:09.134Z,0.85
2022-09-20T13:11:51.109Z,1.30
2022-09-20T13:14:32.593Z,0.85
2022-09-20T13:17:01.311Z,1.00
2022-09-20T13:19:39.022Z,0.95
2022-09-20T13:22:14.900Z,0.88
2022-09-20T13:24:47.179Z,1.50
2022-09-20T13:27:24.606Z,1.02
2022-09-20T13:29:53.488Z,0.82
2022-09-20T13:32:30.987Z,0.80
2022-09-20T13:35:25.112Z,0.93
2022-09-20T13:37:57.543Z,0.63
2022-09-20T13:40:34.241Z,1.10
2022-09-20T13:43:23.155Z,0.70
2022-09-20T13:45:56.603Z,0.77
2022-09-20T13:48:27.489Z,0.65
2022-09-20T13:50:57.192Z,0.43
2022-09-20T13:53:41.072Z,0.60
2022-09-20T13:56:31.618Z,0.88
2022-09-20T13:59:05.132Z,0.60
2022-09-20T14:01:35.480Z,0.75
2022-09-20T14:04:08.918Z,0.85
2022-09-20T14:06:37.419Z,0.88
2022-09-20T14:09:11.421Z,0.82
2022-09-20T14:11:42.647Z,1.27
2022-09-20T14:14:15.640Z,0.75
2022-09-20T14:16:49.170Z,1.20
2022-09-20T14:19:21.215Z,0.90
2022-09-20T14:21:52.187Z,1.10
2022-09-20T14:24:32.619Z,0.90
2022-09-20T14:27:19.439Z,1.25
2022-09-20T14:29:55.195Z,0.82
2022-09-20T14:32:46.821Z,0.80
2022-09-20T14:35:19.180Z,1.08
2022-09-20T14:38:07.602Z,1.00
2022-09-20T14:40:48.883Z,1.25
2022-09-20T14:43:33.897Z,1.63
2022-09-20T14:46:15.996Z,1.08
2022-09-20T14:48:45.509Z,1.23
2022-09-20T14:51:18.059Z,1.17
2022-09-20T14:54:13.524Z,1.23
2022-09-20T14:56:53.154Z,1.95
2022-09-20T14:59:35.538Z,1.00
2022-09-20T15:02:16.320Z,1.02
2022-09-20T15:04:57.548Z,1.27
2022-09-20T15:07:26.963Z,0.90
2022-09-20T15:09:55.493Z,0.95
2022-09-20T15:12:23.821Z,1.00
2022-09-20T15:14:52.328Z,0.80
2022-09-20T15:17:22.525Z,0.80
2022-09-20T15:19:50.978Z,1.35
2022-09-20T15:22:19.311Z,1.17
2022-09-20T15:24:47.660Z,1.40
2022-09-20T15:27:16.089Z,1.20
2022-09-20T15:29:44.395Z,0.80
2022-09-20T15:32:12.766Z,0.93
2022-09-20T15:34:41.546Z,0.90
2022-09-20T15:37:13.023Z,1.00
2022-09-20T15:39:41.894Z,1.20
2022-09-20T15:42:11.114Z,1.67
2022-09-20T15:44:39.457Z,1.50
2022-09-20T15:47:17.699Z,1.58
2022-09-20T15:49:47.068Z,1.10
2022-09-20T15:52:16.117Z,1.23
2022-09-20T15:54:44.940Z,0.80
2022-09-20T15:57:13.561Z,1.20
2022-09-20T15:59:42.012Z,1.55
2022-09-20T16:02:18.035Z,1.20
2022-09-20T16:04:46.659Z,1.02
2022-09-20T16:07:22.554Z,1.23
2022-09-20T16:09:53.916Z,1.30
2022-09-20T16:12:29.516Z,1.20
2022-09-20T16:14:57.925Z,1.23
2022-09-20T16:17:46.776Z,1.65
2022-09-20T16:20:15.360Z,1.52
2022-09-20T16:22:44.220Z,1.10
2022-09-20T16:25:12.733Z,1.00
2022-09-20T16:27:44.337Z,1.13
2022-09-20T16:30:14.195Z,1.45
2022-09-20T16:32:44.148Z,1.30
2022-09-20T16:35:13.142Z,1.23
2022-09-20T16:37:43.059Z,1.30
2022-09-20T16:40:14.219Z,1.67
2022-09-20T16:42:46.955Z,1.00
2022-09-20T16:45:17.491Z,1.27
2022-09-20T16:47:47.850Z,1.25
2022-09-20T16:50:16.617Z,1.60
2022-09-20T16:52:45.286Z,1.13
2022-09-20T16:55:13.727Z,1.00
2022-09-20T16:57:42.949Z,1.20
2022-09-20T17:00:12.552Z,0.88
2022-09-20T17:02:44.652Z,2.10
2022-09-20T17:05:16.591Z,0.93
2022-09-20T17:07:47.022Z,1.80
2022-09-20T17:10:15.499Z,1.30
2022-09-20T17:12:46.721Z,1.52
2022-09-20T17:15:15.260Z,1.50
2022-09-20T17:17:43.679Z,1.20
2022-09-20T17:20:13.577Z,1.13
2022-09-20T17:22:43.027Z,1.00
2022-09-20T17:25:11.488Z,1.58
2022-09-20T17:27:39.865Z,1.42
2022-09-20T17:30:10.187Z,1.02
2022-09-20T17:32:38.493Z,1.13
2022-09-20T17:35:10.422Z,1.15
2022-09-20T17:37:38.854Z,1.00
2022-09-20T17:40:09.432Z,1.63
2022-09-20T17:45:10.215Z,1.70
2022-09-20T17:47:42.042Z,1.25
2022-09-20T17:50:14.729Z,1.23
2022-09-20T17:52:43.107Z,1.83
2022-09-20T17:55:12.318Z,2.15
2022-09-20T17:57:41.064Z,2.90
2022-09-20T18:00:10.500Z,2.10
2022-09-20T18:02:39.302Z,2.47
2022-09-20T18:05:10.916Z,2.35
2022-09-20T18:07:39.265Z,2.95
2022-09-20T18:10:08.683Z,2.13
2022-09-20T18:12:38.288Z,2.10
2022-09-20T18:15:16.640Z,2.75
2022-09-20T18:17:49.250Z,1.67
2022-09-20T18:20:20.812Z,1.60
2022-09-20T18:22:49.323Z,2.17
2022-09-20T18:25:17.734Z,2.15
2022-09-20T18:27:46.408Z,1.63
2022-09-20T18:30:15.406Z,1.73
2022-09-20T18:32:50.085Z,1.85
2022-09-20T18:35:27.435Z,2.13
2022-09-20T18:37:56.108Z,1.40
2022-09-20T18:40:29.430Z,1.35
2022-09-20T18:43:04.476Z,1.95
2022-09-20T18:45:33.533Z,1.30
2022-09-20T18:48:02.458Z,1.70
2022-09-20T18:50:34.717Z,1.83
2022-09-20T18:53:03.458Z,1.30
2022-09-20T18:55:37.883Z,1.45
2022-09-20T18:58:21.173Z,1.95
2022-09-20T19:01:08.193Z,1.15
2022-09-20T19:04:01.425Z,2.13
2022-09-20T19:06:41.918Z,1.65
2022-09-20T19:09:26.346Z,1.63
2022-09-20T19:12:07.953Z,1.70
2022-09-20T19:14:50.872Z,1.77
2022-09-20T19:17:25.764Z,1.65
2022-09-20T19:20:09.090Z,2.20
2022-09-20T19:22:54.179Z,1.30
2022-09-20T19:25:45.092Z,1.48
2022-09-20T19:30:48.262Z,1.75
2022-09-20T19:33:19.456Z,1.45
2022-09-20T19:35:52.324Z,2.40
2022-09-20T19:38:41.702Z,1.48
2022-09-20T19:41:32.274Z,1.45
2022-09-20T19:47:15.122Z,1.50
2022-09-20T19:49:55.475Z,1.80
2022-09-20T19:52:24.659Z,1.92
2022-09-20T19:54:56.318Z,1.85
2022-09-20T19:57:47.422Z,1.73
2022-09-20T20:00:19.175Z,1.58
2022-09-20T20:02:49.005Z,1.65
2022-09-20T20:05:20.217Z,1.85
2022-09-20T20:07:54.811Z,1.40
2022-09-20T20:10:49.843Z,1.60
2022-09-20T20:13:43.049Z,1.90
2022-09-20T20:16:15.710Z,1.80
2022-09-20T20:18:50.225Z,1.73
2022-09-20T20:21:45.464Z,1.30
2022-09-20T20:24:48.033Z,1.25
2022-09-20T20:27:16.552Z,1.20
2022-09-20T20:29:45.372Z,1.60
2022-09-20T20:32:19.773Z,2.35
2022-09-20T20:34:48.504Z,1.77
2022-09-20T20:37:20.967Z,2.13
2022-09-20T20:39:49.855Z,1.63
2022-09-20T20:42:18.420Z,1.65
2022-09-20T20:44:47.612Z,1.90
2022-09-20T20:47:16.241Z,1.58
2022-09-20T20:49:51.993Z,1.67
2022-09-20T20:52:25.674Z,1.58
2022-09-20T20:54:54.143Z,1.60
2022-09-20T20:57:23.350Z,1.33
2022-09-20T20:59:51.817Z,2.10
2022-09-20T21:02:20.957Z,1.77
2022-09-20T21:04:49.334Z,1.38
2022-09-20T21:07:19.340Z,1.58
2022-09-20T21:09:47.825Z,2.10
2022-09-20T21:12:16.285Z,2.15
2022-09-20T21:17:15.085Z,1.77
2022-09-20T21:19:43.522Z,1.60
2022-09-20T21:22:12.116Z,1.98
2022-09-20T21:24:40.477Z,1.48
2022-09-20T21:27:09.102Z,1.75
2022-09-20T21:29:39.680Z,1.70
2022-09-20T21:32:08.145Z,2.05
2022-09-20T21:34:36.688Z,1.73
2022-09-20T21:37:05.109Z,1.65
2022-09-20T21:39:33.447Z,1.52
2022-09-20T21:42:04.396Z,1.80
2022-09-20T21:44:32.722Z,1.33
2022-09-20T21:47:01.699Z,2.20
2022-09-20T21:49:30.090Z,2.67
2022-09-20T21:51:58.542Z,2.00
2022-09-20T21:54:31.410Z,2.17
2022-09-20T21:57:00.041Z,2.40
2022-09-20T21:59:28.368Z,2.47
2022-09-20T22:01:58.760Z,1.88
2022-09-20T22:04:29.025Z,2.78
2022-09-20T22:06:57.387Z,3.25
2022-09-20T22:09:25.774Z,3.03
2022-09-20T22:11:54.152Z,2.90
2022-09-20T22:14:22.600Z,3.95
2022-09-20T22:16:51.454Z,3.42
2022-09-20T22:19:20.541Z,3.50
2022-09-20T22:21:51.123Z,3.95
2022-09-20T22:24:19.963Z,3.30
2022-09-20T22:26:50.622Z,3.60
2022-09-20T22:29:20.158Z,3.38
2022-09-20T22:31:50.179Z,3.47
2022-09-20T22:34:22.715Z,3.55
2022-09-20T22:36:52.291Z,3.10
2022-09-20T22:39:20.974Z,3.15
2022-09-20T22:41:51.103Z,3.25
2022-09-20T22:44:19.648Z,3.17
2022-09-20T22:46:48.308Z,3.55
2022-09-20T22:49:16.898Z,2.85
2022-09-20T22:51:48.101Z,2.90
2022-09-20T22:54:16.652Z,3.72
2022-09-20T22:56:45.465Z,2.50
2022-09-20T22:59:15.015Z,2.63
2022-09-20T23:01:45.686Z,2.58
2022-09-20T23:06:52.069Z,2.88
2022-09-20T23:09:23.293Z,3.00
2022-09-20T23:11:52.040Z,2.95
2022-09-20T23:14:22.778Z,3.00
2022-09-20T23:16:51.622Z,3.15
2022-09-20T23:19:20.609Z,3.03
2022-09-20T23:21:51.281Z,2.70
2022-09-20T23:24:19.967Z,3.63
2022-09-20T23:26:48.452Z,3.13
2022-09-20T23:29:18.634Z,3.03
2022-09-20T23:31:48.254Z,3.00
2022-09-20T23:34:19.894Z,2.95
2022-09-20T23:36:48.609Z,3.17
2022-09-20T23:39:19.879Z,3.00
2022-09-20T23:41:51.081Z,2.60
2022-09-20T23:44:20.003Z,2.80
2022-09-20T23:46:48.833Z,2.92
2022-09-20T23:49:19.948Z,3.03
2022-09-20T23:51:48.481Z,2.60
2022-09-20T23:54:17.045Z,3.00
2022-09-20T23:56:47.324Z,3.05
2022-09-20T23:59:15.821Z,3.03
